sensor_id;sensor_type;location;lat;lon;timestamp;P1;durP1;ratioP1;P2;durP2;ratioP2
43756;SDS011;45574;41.864;12.462;2022-11-14T12:53:52;3.95;;;2.85;;
43756;SDS011;45574;41.864;12.462;2022-11-14T12:57:01;4.35;;;3.20;;
43756;SDS011;45574;41.864;12.462;2022-11-14T13:00:40;4.47;;;2.30;;
43756;SDS011;45574;41.864;12.462;2022-11-14T13:04:25;4.43;;;2.17;;
43756;SDS011;45574;41.864;12.462;2022-11-14T13:18:49;14.15;;;2.63;;
43756;SDS011;45574;41.864;12.462;2022-11-14T13:32:54;3.50;;;3.20;;
43756;SDS011;45574;41.864;12.462;2022-11-14T13:39:53;3.67;;;3.17;;
43756;SDS011;45574;41.864;12.462;2022-11-14T13:53:57;5.35;;;2.88;;
43756;SDS011;45574;41.864;12.462;2022-11-14T14:04:07;7.75;;;3.05;;
43756;SDS011;45574;41.864;12.462;2022-11-14T14:10:43;6.35;;;3.60;;
43756;SDS011;45574;41.864;12.462;2022-11-14T14:17:53;5.32;;;3.40;;
43756;SDS011;45574;41.864;12.462;2022-11-14T14:21:22;8.02;;;3.70;;
43756;SDS011;45574;41.864;12.462;2022-11-14T14:31:02;5.63;;;3.47;;
43756;SDS011;45574;41.864;12.462;2022-11-14T14:34:24;8.25;;;4.05;;
43756;SDS011;45574;41.864;12.462;2022-11-14T14:37:30;7.10;;;3.92;;
43756;SDS011;45574;41.864;12.462;2022-11-14T14:40:36;4.70;;;4.03;;
43756;SDS011;45574;41.864;12.462;2022-11-14T14:43:42;5.68;;;3.78;;
43756;SDS011;45574;41.864;12.462;2022-11-14T14:46:53;10.38;;;3.90;;
43756;SDS011;45574;41.864;12.462;2022-11-14T14:49:58;6.85;;;4.13;;
43756;SDS011;45574;41.864;12.462;2022-11-14T14:53:04;6.18;;;3.58;;
43756;SDS011;45574;41.864;12.462;2022-11-14T14:56:21;5.20;;;3.75;;
43756;SDS011;45574;41.864;12.462;2022-11-14T14:59:29;9.10;;;3.40;;
43756;SDS011;45574;41.864;12.462;2022-11-14T15:02:34;5.57;;;3.40;;
43756;SDS011;45574;41.864;12.462;2022-11-14T15:05:42;7.32;;;4.30;;
43756;SDS011;45574;41.864;12.462;2022-11-14T15:15:53;6.43;;;3.95;;
43756;SDS011;45574;41.864;12.462;2022-11-14T15:19:01;7.85;;;4.13;;
43756;SDS011;45574;41.864;12.462;2022-11-14T15:32:00;6.07;;;3.70;;
43756;SDS011;45574;41.864;12.462;2022-11-14T15:39:27;8.02;;;4.30;;
43756;SDS011;45574;41.864;12.462;2022-11-14T15:42:31;5.20;;;3.75;;
43756;SDS011;45574;41.864;12.462;2022-11-14T16:51:41;9.07;;;4.78;;
43756;SDS011;45574;41.864;12.462;2022-11-14T16:54:46;7.75;;;4.57;;
43756;SDS011;45574;41.864;12.462;2022-11-14T16:57:51;13.00;;;5.55;;
43756;SDS011;45574;41.864;12.462;2022-11-14T20:18:10;15.35;;;11.15;;
43756;SDS011;45574;41.864;12.462;2022-11-14T20:21:16;15.18;;;11.27;;
43756;SDS011;45574;41.864;12.462;2022-11-14T20:24:21;14.93;;;10.32;;
43756;SDS011;45574;41.864;12.462;2022-11-14T20:27:27;17.95;;;10.25;;
43756;SDS011;45574;41.864;12.462;2022-11-14T20:30:41;15.77;;;10.60;;
43756;SDS011;45574;41.864;12.462;2022-11-14T20:33:49;19.23;;;11.38;;
43756;SDS011;45574;41.864;12.462;2022-11-14T20:36:55;13.15;;;10.68;;
43756;SDS011;45574;41.864;12.462;2022-11-14T20:39:59;17.42;;;11.07;;
43756;SDS011;45574;41.864;12.462;2022-11-14T20:46:58;18.05;;;11.55;;
43756;SDS011;45574;41.864;12.462;2022-11-14T20:50:04;15.00;;;12.02;;
43756;SDS011;45574;41.864;12.462;2022-11-14T20:53:09;14.95;;;12.95;;
43756;SDS011;45574;41.864;12.462;2022-11-14T20:56:14;15.75;;;12.48;;
43756;SDS011;45574;41.864;12.462;2022-11-14T21:33:32;23.50;;;16.02;;
43756;SDS011;45574;41.864;12.462;2022-11-14T21:36:37;23.75;;;14.45;;
43756;SDS011;45574;41.864;12.462;2022-11-14T21:39:43;26.70;;;16.50;;
43756;SDS011;45574;41.864;12.462;2022-11-14T21:42:48;21.05;;;16.08;;
43756;SDS011;45574;41.864;12.462;2022-11-14T21:45:56;21.50;;;15.07;;
43756;SDS011;45574;41.864;12.462;2022-11-14T21:49:02;24.95;;;16.58;;
43756;SDS011;45574;41.864;12.462;2022-11-14T21:52:09;22.67;;;17.23;;
43756;SDS011;45574;41.864;12.462;2022-11-14T21:59:20;24.70;;;16.95;;
43756;SDS011;45574;41.864;12.462;2022-11-14T22:02:43;22.27;;;17.52;;
43756;SDS011;45574;41.864;12.462;2022-11-14T22:10:06;28.35;;;18.27;;
43756;SDS011;45574;41.864;12.462;2022-11-14T22:16:22;21.70;;;17.60;;
43756;SDS011;45574;41.864;12.462;2022-11-14T22:23:41;25.25;;;17.67;;
43756;SDS011;45574;41.864;12.462;2022-11-14T22:27:20;24.52;;;18.13;;
43756;SDS011;45574;41.864;12.462;2022-11-14T22:30:42;24.75;;;18.30;;
43756;SDS011;45574;41.864;12.462;2022-11-14T22:34:29;26.60;;;18.52;;
43756;SDS011;45574;41.864;12.462;2022-11-14T22:38:06;26.05;;;18.20;;
43756;SDS011;45574;41.864;12.462;2022-11-14T22:52:16;24.05;;;18.35;;
43756;SDS011;45574;41.864;12.462;2022-11-14T22:55:32;22.95;;;17.95;;
43756;SDS011;45574;41.864;12.462;2022-11-14T22:59:02;24.17;;;18.83;;
43756;SDS011;45574;41.864;12.462;2022-11-14T23:02:29;25.10;;;18.98;;
43756;SDS011;45574;41.864;12.462;2022-11-14T23:05:35;22.85;;;18.73;;
43756;SDS011;45574;41.864;12.462;2022-11-14T23:08:57;23.42;;;19.75;;
43756;SDS011;45574;41.864;12.462;2022-11-14T23:12:05;26.02;;;20.00;;
43756;SDS011;45574;41.864;12.462;2022-11-14T23:15:14;30.90;;;19.27;;
43756;SDS011;45574;41.864;12.462;2022-11-14T23:18:25;22.95;;;18.42;;
43756;SDS011;45574;41.864;12.462;2022-11-14T23:21:34;24.95;;;18.50;;
43756;SDS011;45574;41.864;12.462;2022-11-14T23:24:39;37.40;;;19.70;;
43756;SDS011;45574;41.864;12.462;2022-11-14T23:27:45;21.45;;;19.05;;
43756;SDS011;45574;41.864;12.462;2022-11-14T23:30:50;28.77;;;19.45;;
43756;SDS011;45574;41.864;12.462;2022-11-14T23:33:59;27.13;;;19.08;;
43756;SDS011;45574;41.864;12.462;2022-11-14T23:37:07;27.77;;;19.77;;
43756;SDS011;45574;41.864;12.462;2022-11-14T23:40:11;28.63;;;19.83;;
43756;SDS011;45574;41.864;12.462;2022-11-14T23:43:24;23.17;;;18.98;;
43756;SDS011;45574;41.864;12.462;2022-11-14T23:46:31;27.00;;;19.40;;
43756;SDS011;45574;41.864;12.462;2022-11-14T23:49:39;26.40;;;20.50;;
43756;SDS011;45574;41.864;12.462;2022-11-14T23:56:01;26.27;;;21.50;;
43756;SDS011;45574;41.864;12.462;2022-11-14T23:59:05;25.63;;;20.20;;
